Lexington, Arkansas
Current Conditions -  °F | °C
As of 8:56 AM on Wednesday 22 Oct 2014 (Local Time) from KSRC Reporting Station
Clear Clear  
Wind Chill: 54°   Ceiling: Unl
Heat Index: 54°   Visibility: 10mi
Dew Point: 49°   Wind: 8mph
Humidity: 83%   Direction: 40°NE
Pressure: 30.26"   Gusts: NA
Location:  35.4585°N, 92.3035°W
Report Text: KSRC 221356Z AUTO 04007KT 10SM CLR 12/09 A3026 RMK AO2 SLP252 T01220094 TSNO
Loading
Personal Weather Stations






























Interactive Weather Map
Tropical Storm Tracking
New forecast layout! Learn more

10-Day Weather Forecast

Advertisements
Track Severe Weather on mobile